createdAt,value
2022-08-16T00:00:38.686Z,58.11
2022-08-16T00:03:06.570Z,57.71
2022-08-16T00:05:48.466Z,58.07
2022-08-16T00:08:35.963Z,57.95
2022-08-16T00:11:05.797Z,58.22
2022-08-16T00:13:41.815Z,58.22
2022-08-16T00:17:01.376Z,58.60
2022-08-16T00:18:56.500Z,58.48
2022-08-16T00:21:23.521Z,58.54
2022-08-16T00:23:50.254Z,58.32
2022-08-16T00:26:35.001Z,58.37
2022-08-16T00:29:04.761Z,58.42
2022-08-16T00:31:59.410Z,58.48
2022-08-16T00:34:22.948Z,58.48
2022-08-16T00:37:10.394Z,58.58
2022-08-16T00:39:37.200Z,58.10
2022-08-16T00:42:10.175Z,58.59
2022-08-16T00:44:38.901Z,58.34
2022-08-16T00:47:12.509Z,58.21
2022-08-16T00:49:44.872Z,58.65
2022-08-16T00:52:29.525Z,58.71
2022-08-16T00:54:57.189Z,58.92
2022-08-16T00:57:24.208Z,58.93
2022-08-16T00:59:58.729Z,58.70
2022-08-16T01:02:31.235Z,58.88
2022-08-16T01:05:10.782Z,59.25
2022-08-16T01:07:51.135Z,58.52
2022-08-16T01:10:32.035Z,58.87
2022-08-16T01:13:06.627Z,58.91
2022-08-16T01:15:36.366Z,58.87
2022-08-16T01:18:06.638Z,59.34
2022-08-16T01:20:41.666Z,59.04
2022-08-16T01:23:14.790Z,58.61
2022-08-16T01:26:00.216Z,58.04
2022-08-16T01:28:38.814Z,58.06
2022-08-16T01:31:13.713Z,58.47
2022-08-16T01:33:40.397Z,58.13
2022-08-16T01:36:12.998Z,58.53
2022-08-16T01:38:48.971Z,58.36
2022-08-16T01:41:19.937Z,58.41
2022-08-16T01:43:53.713Z,58.55
2022-08-16T01:46:37.210Z,58.36
2022-08-16T01:49:15.433Z,58.65
2022-08-16T01:51:45.702Z,58.10
2022-08-16T01:54:13.175Z,58.18
2022-08-16T01:56:40.952Z,58.53
2022-08-16T01:59:15.727Z,58.54
2022-08-16T02:01:49.570Z,58.10
2022-08-16T02:04:48.215Z,58.04
2022-08-16T02:07:11.316Z,58.23
2022-08-16T02:09:41.071Z,57.98
2022-08-16T02:12:50.481Z,58.35
2022-08-16T02:14:57.608Z,58.29
2022-08-16T02:17:28.502Z,57.58
2022-08-16T02:20:00.018Z,57.97
2022-08-16T02:22:34.815Z,57.52
2022-08-16T02:25:14.635Z,57.81
2022-08-16T02:27:43.802Z,57.72
2022-08-16T02:30:37.197Z,57.75
2022-08-16T02:33:06.381Z,57.46
2022-08-16T02:35:34.210Z,57.12
2022-08-16T02:38:16.874Z,57.54
2022-08-16T02:40:45.634Z,57.57
2022-08-16T02:43:13.159Z,58.17
2022-08-16T02:45:41.145Z,58.22
2022-08-16T02:48:28.235Z,57.76
2022-08-16T02:51:07.998Z,57.95
2022-08-16T02:53:44.817Z,57.63
2022-08-16T02:56:15.168Z,57.70
2022-08-16T02:58:44.114Z,58.06
2022-08-16T03:01:25.310Z,58.48
2022-08-16T03:04:41.057Z,58.02
2022-08-16T03:06:46.654Z,58.36
2022-08-16T03:09:16.284Z,58.09
2022-08-16T03:11:44.726Z,58.17
2022-08-16T03:14:12.248Z,58.49
2022-08-16T03:16:58.590Z,58.54
2022-08-16T03:19:59.414Z,58.44
2022-08-16T03:22:19.520Z,58.72
2022-08-16T03:24:57.353Z,59.00
2022-08-16T03:27:25.013Z,59.06
2022-08-16T03:29:54.476Z,59.14
2022-08-16T03:32:21.792Z,59.66
2022-08-16T03:34:50.017Z,59.66
2022-08-16T03:37:17.085Z,59.61
2022-08-16T03:39:43.772Z,59.91
2022-08-16T03:42:10.590Z,59.79
2022-08-16T03:44:44.734Z,59.86
2022-08-16T03:47:18.783Z,59.92
2022-08-16T03:49:52.282Z,60.24
2022-08-16T03:52:23.906Z,60.50
2022-08-16T03:54:59.277Z,60.74
2022-08-16T03:57:31.807Z,60.44
2022-08-16T04:00:35.224Z,60.57
2022-08-16T04:03:07.254Z,60.72
2022-08-16T04:05:36.969Z,61.05
2022-08-16T04:08:22.423Z,61.28
2022-08-16T04:10:52.850Z,61.76
2022-08-16T04:13:20.557Z,61.66
2022-08-16T04:16:06.971Z,61.96
2022-08-16T04:18:36.826Z,62.18
2022-08-16T04:21:03.851Z,62.19
2022-08-16T04:23:30.432Z,62.30
2022-08-16T04:25:58.243Z,61.93
2022-08-16T04:28:53.496Z,62.19
2022-08-16T04:31:15.456Z,62.28
2022-08-16T04:33:50.749Z,62.36
2022-08-16T04:36:20.171Z,62.56
2022-08-16T04:38:47.277Z,62.60
2022-08-16T04:41:17.327Z,62.33
2022-08-16T04:43:45.028Z,62.97
2022-08-16T04:46:19.850Z,62.42
2022-08-16T04:49:01.732Z,62.62
2022-08-16T04:51:28.255Z,62.43
2022-08-16T04:54:03.171Z,62.81
2022-08-16T04:56:30.431Z,62.15
2022-08-16T04:58:57.732Z,61.74
2022-08-16T05:01:24.702Z,61.81
2022-08-16T05:04:19.481Z,62.07
2022-08-16T05:06:47.088Z,61.76
2022-08-16T05:09:14.257Z,61.78
2022-08-16T05:11:45.672Z,62.16
2022-08-16T05:14:20.155Z,61.59
2022-08-16T05:17:02.616Z,61.78
2022-08-16T05:19:35.923Z,61.83
2022-08-16T05:22:02.887Z,61.78
2022-08-16T05:24:32.755Z,61.38
2022-08-16T05:27:00.215Z,61.49
2022-08-16T05:29:56.858Z,61.43
2022-08-16T05:32:32.883Z,61.13
2022-08-16T05:35:07.758Z,61.10
2022-08-16T05:37:40.251Z,60.75
2022-08-16T05:40:09.268Z,60.19
2022-08-16T05:42:40.163Z,60.07
2022-08-16T05:45:13.088Z,59.81
2022-08-16T05:47:48.076Z,59.48
2022-08-16T05:50:28.198Z,58.91
2022-08-16T05:53:00.577Z,58.82
2022-08-16T05:55:28.215Z,58.35
2022-08-16T05:57:56.945Z,57.80
2022-08-16T06:00:23.755Z,57.49
2022-08-16T06:02:51.121Z,57.60
2022-08-16T06:05:18.204Z,57.71
2022-08-16T06:07:45.463Z,57.64
2022-08-16T06:10:32.369Z,57.78
2022-08-16T06:13:02.663Z,57.68
2022-08-16T06:15:30.656Z,58.02
2022-08-16T06:17:58.942Z,57.55
2022-08-16T06:20:35.038Z,57.95
2022-08-16T06:23:04.047Z,57.69
2022-08-16T06:25:39.605Z,57.71
2022-08-16T06:28:16.943Z,57.42
2022-08-16T06:30:59.058Z,57.83
2022-08-16T06:33:28.320Z,57.43
2022-08-16T06:35:59.480Z,57.47
2022-08-16T06:38:33.069Z,57.60
2022-08-16T06:41:01.516Z,57.68
2022-08-16T06:43:29.064Z,56.83
2022-08-16T06:45:56.281Z,57.01
2022-08-16T06:48:32.135Z,56.16
2022-08-16T06:51:00.015Z,56.04
2022-08-16T06:53:26.574Z,56.26
2022-08-16T06:55:58.733Z,56.32
2022-08-16T06:58:31.933Z,56.08
2022-08-16T07:01:00.241Z,55.64
2022-08-16T07:03:32.404Z,56.26
2022-08-16T07:05:59.692Z,56.16
2022-08-16T07:08:27.703Z,56.12
2022-08-16T07:10:56.390Z,56.29
2022-08-16T07:16:15.666Z,55.36
2022-08-16T07:19:01.551Z,55.58
2022-08-16T07:21:46.573Z,55.69
2022-08-16T07:24:30.468Z,55.46
2022-08-16T07:27:00.664Z,55.51
2022-08-16T07:29:28.008Z,55.69
2022-08-16T07:31:58.968Z,55.29
2022-08-16T07:34:35.025Z,55.18
2022-08-16T07:37:07.512Z,55.30
2022-08-16T07:39:34.364Z,54.90
2022-08-16T07:42:10.028Z,54.41
2022-08-16T07:44:49.100Z,54.58
2022-08-16T07:47:17.353Z,55.06
2022-08-16T07:49:52.846Z,54.73
2022-08-16T07:52:29.636Z,54.39
2022-08-16T07:54:56.316Z,54.15
2022-08-16T07:57:24.099Z,53.87
2022-08-16T07:59:53.531Z,53.79
2022-08-16T08:02:33.459Z,54.08
2022-08-16T08:05:03.442Z,54.15
2022-08-16T08:07:32.386Z,54.01
2022-08-16T08:10:00.974Z,53.50
2022-08-16T08:12:32.447Z,53.39
2022-08-16T08:15:05.980Z,52.92
2022-08-16T08:17:43.217Z,53.13
2022-08-16T08:20:20.854Z,52.83
2022-08-16T08:23:00.027Z,52.99
2022-08-16T08:25:54.308Z,52.15
2022-08-16T08:28:17.271Z,52.35
2022-08-16T08:30:51.927Z,52.22
2022-08-16T08:33:28.637Z,52.05
2022-08-16T08:36:01.061Z,52.03
2022-08-16T08:38:46.022Z,51.77
2022-08-16T08:41:18.655Z,51.67
2022-08-16T08:43:47.359Z,51.59
2022-08-16T08:46:21.438Z,51.62
2022-08-16T08:49:00.165Z,51.07
2022-08-16T08:51:35.887Z,51.20
2022-08-16T08:54:09.266Z,50.99
2022-08-16T08:56:45.450Z,50.76
2022-08-16T08:59:19.760Z,50.64
2022-08-16T09:01:57.175Z,51.09
2022-08-16T09:04:24.779Z,51.02
2022-08-16T09:06:53.759Z,50.63
2022-08-16T09:09:21.000Z,50.43
2022-08-16T09:11:53.310Z,49.87
2022-08-16T09:14:24.010Z,49.88
2022-08-16T09:17:01.581Z,49.38
2022-08-16T09:19:34.664Z,49.16
2022-08-16T09:22:01.706Z,49.08
2022-08-16T09:24:46.674Z,49.43
2022-08-16T09:27:14.987Z,49.03
2022-08-16T09:29:45.417Z,48.24
2022-08-16T09:32:13.163Z,48.19
2022-08-16T09:34:58.504Z,48.03
2022-08-16T09:37:29.467Z,47.54
2022-08-16T09:39:59.632Z,47.23
2022-08-16T09:42:30.486Z,47.65
2022-08-16T09:45:18.512Z,48.01
2022-08-16T09:47:56.469Z,48.22
2022-08-16T09:50:38.327Z,47.41
2022-08-16T09:53:15.527Z,47.47
2022-08-16T09:55:49.374Z,47.43
2022-08-16T09:58:40.738Z,47.25
2022-08-16T10:01:04.501Z,47.54
2022-08-16T10:03:31.622Z,47.21
2022-08-16T10:05:58.314Z,46.83
2022-08-16T10:08:26.307Z,46.86
2022-08-16T10:11:12.274Z,46.79
2022-08-16T10:13:39.671Z,46.04
2022-08-16T10:16:09.230Z,46.20
2022-08-16T10:19:02.320Z,45.73
2022-08-16T10:21:24.526Z,44.59
2022-08-16T10:23:56.041Z,44.80
2022-08-16T10:27:17.503Z,44.27
2022-08-16T10:29:19.948Z,44.58
2022-08-16T10:31:53.340Z,44.71
2022-08-16T10:34:31.744Z,45.08
2022-08-16T10:37:01.977Z,45.17
2022-08-16T10:39:40.599Z,44.69
2022-08-16T10:42:08.748Z,43.78
2022-08-16T10:44:37.494Z,44.12
2022-08-16T10:47:05.358Z,44.16
2022-08-16T10:49:34.754Z,43.53
2022-08-16T10:52:18.810Z,42.54
2022-08-16T10:57:36.600Z,43.26
2022-08-16T11:00:22.520Z,43.22
2022-08-16T11:02:58.872Z,43.58
2022-08-16T11:05:59.103Z,42.77
2022-08-16T11:08:13.869Z,41.60
2022-08-16T11:11:06.451Z,41.96
2022-08-16T11:16:27.774Z,41.11
2022-08-16T11:19:14.382Z,41.58
2022-08-16T11:24:41.430Z,41.50
2022-08-16T11:27:22.990Z,41.81
2022-08-16T11:29:53.363Z,41.91
2022-08-16T11:32:31.395Z,41.43
2022-08-16T11:35:14.350Z,41.57
2022-08-16T11:40:52.166Z,40.74
2022-08-16T11:43:23.799Z,41.15
2022-08-16T11:45:55.315Z,40.96
2022-08-16T11:48:25.626Z,40.55
2022-08-16T11:50:52.915Z,40.95
2022-08-16T11:53:21.212Z,40.62
2022-08-16T11:55:55.047Z,39.86
2022-08-16T11:58:31.800Z,40.08
2022-08-16T12:01:00.469Z,40.46
2022-08-16T12:03:35.095Z,40.59
2022-08-16T12:06:30.557Z,40.09
2022-08-16T12:09:01.054Z,40.35
2022-08-16T12:11:31.445Z,40.20
2022-08-16T12:14:00.743Z,39.86
2022-08-16T12:16:31.083Z,40.18
2022-08-16T12:19:00.781Z,40.22
2022-08-16T12:21:36.005Z,40.44
2022-08-16T12:24:37.237Z,39.86
2022-08-16T12:27:05.825Z,39.60
2022-08-16T12:29:35.505Z,39.84
2022-08-16T12:32:35.774Z,38.98
2022-08-16T12:34:52.768Z,39.78
2022-08-16T12:37:20.774Z,39.73
2022-08-16T12:39:50.761Z,39.14
2022-08-16T12:42:20.574Z,38.14
2022-08-16T12:44:47.671Z,38.58
2022-08-16T12:47:32.868Z,38.75
2022-08-16T12:50:01.810Z,37.90
2022-08-16T12:52:33.888Z,38.29
2022-08-16T12:55:02.167Z,37.99
2022-08-16T12:57:58.047Z,38.67
2022-08-16T13:00:33.071Z,38.96
2022-08-16T13:03:02.454Z,39.00
2022-08-16T13:07:58.838Z,37.81
2022-08-16T13:10:37.082Z,37.52
2022-08-16T13:13:08.846Z,36.88
2022-08-16T13:15:51.818Z,37.53
2022-08-16T13:18:32.343Z,36.75
2022-08-16T13:21:06.694Z,36.51
2022-08-16T13:23:35.886Z,36.10
2022-08-16T13:26:03.454Z,36.51
2022-08-16T13:28:30.047Z,36.63
2022-08-16T13:30:58.417Z,36.93
2022-08-16T13:33:37.166Z,36.69
2022-08-16T13:36:17.135Z,36.37
2022-08-16T13:38:53.080Z,36.68
2022-08-16T13:41:21.087Z,36.26
2022-08-16T13:43:55.096Z,36.70
2022-08-16T13:46:24.704Z,36.40
2022-08-16T13:48:52.977Z,35.87
2022-08-16T13:51:20.287Z,35.89
2022-08-16T13:53:59.055Z,36.19
2022-08-16T13:56:37.185Z,36.10
2022-08-16T13:59:19.286Z,35.46
2022-08-16T14:01:55.079Z,34.90
2022-08-16T14:04:32.376Z,33.98
2022-08-16T14:07:01.393Z,33.73
2022-08-16T14:09:30.293Z,33.63
2022-08-16T14:12:00.877Z,32.92
2022-08-16T14:14:30.063Z,33.11
2022-08-16T14:17:01.811Z,32.95
2022-08-16T14:19:31.397Z,33.02
2022-08-16T14:22:14.243Z,33.55
2022-08-16T14:24:47.068Z,34.18
2022-08-16T14:27:17.054Z,34.81
2022-08-16T14:29:44.766Z,35.38
2022-08-16T14:32:13.134Z,35.24
2022-08-16T14:34:52.087Z,35.79
2022-08-16T14:37:25.332Z,35.58
2022-08-16T14:39:54.495Z,35.23
2022-08-16T14:42:23.969Z,34.96
2022-08-16T14:44:51.952Z,34.03
2022-08-16T14:47:18.874Z,34.32
2022-08-16T14:49:45.504Z,33.95
2022-08-16T14:52:44.283Z,34.70
2022-08-16T14:55:06.119Z,34.64
2022-08-16T14:57:33.374Z,35.29
2022-08-16T15:00:05.646Z,35.43
2022-08-16T15:02:34.343Z,35.37
2022-08-16T15:05:04.471Z,35.29
2022-08-16T15:07:35.138Z,35.35
2022-08-16T15:10:02.385Z,34.82
2022-08-16T15:12:33.680Z,34.48
2022-08-16T15:15:12.878Z,34.59
2022-08-16T15:17:54.060Z,34.32
2022-08-16T15:20:23.037Z,33.90
2022-08-16T15:22:53.302Z,33.63
2022-08-16T15:25:31.896Z,34.04
2022-08-16T15:28:04.705Z,34.22
2022-08-16T15:30:56.637Z,33.81
2022-08-16T15:33:23.235Z,34.12
2022-08-16T15:35:55.316Z,34.03
2022-08-16T15:38:55.027Z,33.95
2022-08-16T15:41:47.990Z,34.24
2022-08-16T15:44:22.523Z,34.21
2022-08-16T15:46:55.301Z,34.44
2022-08-16T15:49:37.761Z,34.91
2022-08-16T15:52:20.542Z,35.21
2022-08-16T15:54:53.657Z,34.93
2022-08-16T15:57:25.920Z,35.06
2022-08-16T15:59:56.097Z,34.97
2022-08-16T16:02:31.606Z,34.98
2022-08-16T16:05:04.363Z,35.22
2022-08-16T16:07:33.245Z,34.85
2022-08-16T16:10:01.976Z,34.00
2022-08-16T16:12:50.201Z,34.15
2022-08-16T16:15:22.686Z,34.33
2022-08-16T16:17:53.085Z,33.86
2022-08-16T16:20:24.326Z,34.31
2022-08-16T16:22:51.476Z,34.83
2022-08-16T16:25:18.679Z,34.51
2022-08-16T16:27:45.562Z,35.00
2022-08-16T16:30:37.218Z,34.63
2022-08-16T16:33:02.398Z,34.39
2022-08-16T16:35:32.745Z,34.88
2022-08-16T16:38:01.014Z,34.47
2022-08-16T16:40:32.723Z,35.00
2022-08-16T16:43:04.231Z,34.94
2022-08-16T16:45:36.349Z,34.57
2022-08-16T16:48:12.347Z,34.64
2022-08-16T16:50:44.597Z,34.92
2022-08-16T16:53:17.126Z,34.84
2022-08-16T16:55:51.680Z,34.98
2022-08-16T16:58:43.329Z,35.05
2022-08-16T17:01:10.330Z,35.38
2022-08-16T17:03:38.630Z,35.11
2022-08-16T17:06:10.193Z,35.18
2022-08-16T17:08:41.435Z,35.41
2022-08-16T17:11:09.842Z,35.32
2022-08-16T17:13:36.972Z,35.29
2022-08-16T17:16:05.183Z,34.93
2022-08-16T17:19:17.153Z,35.26
2022-08-16T17:21:19.525Z,34.99
2022-08-16T17:23:58.008Z,35.57
2022-08-16T17:26:30.988Z,35.59
2022-08-16T17:29:02.803Z,35.99
2022-08-16T17:31:40.922Z,35.91
2022-08-16T17:34:28.833Z,35.65
2022-08-16T17:36:59.577Z,36.13
2022-08-16T17:39:30.479Z,35.92
2022-08-16T17:42:03.318Z,36.07
2022-08-16T17:44:30.181Z,36.40
2022-08-16T17:46:56.715Z,36.47
2022-08-16T17:49:23.320Z,35.99
2022-08-16T17:51:50.009Z,36.73
2022-08-16T17:54:20.335Z,36.43
2022-08-16T17:56:57.083Z,36.56
2022-08-16T17:59:24.278Z,36.39
2022-08-16T18:01:50.972Z,36.98
2022-08-16T18:04:48.087Z,37.33
2022-08-16T18:07:05.374Z,36.97
2022-08-16T18:09:31.996Z,37.42
2022-08-16T18:11:58.712Z,37.25
2022-08-16T18:14:51.075Z,37.38
2022-08-16T18:17:12.988Z,37.69
2022-08-16T18:19:39.656Z,37.31
2022-08-16T18:22:18.112Z,37.62
2022-08-16T18:24:49.893Z,37.59
2022-08-16T18:27:25.653Z,38.22
2022-08-16T18:29:53.247Z,38.02
2022-08-16T18:32:23.147Z,38.02
2022-08-16T18:34:52.447Z,38.48
2022-08-16T18:37:19.076Z,38.78
2022-08-16T18:39:45.688Z,38.76
2022-08-16T18:42:15.031Z,38.54
2022-08-16T18:44:43.597Z,38.80
2022-08-16T18:47:10.386Z,38.65
2022-08-16T18:49:37.211Z,38.01
2022-08-16T18:52:04.303Z,38.05
2022-08-16T18:54:32.811Z,38.30
2022-08-16T18:56:59.493Z,38.09
2022-08-16T18:59:29.501Z,38.31
2022-08-16T19:02:00.130Z,38.24
2022-08-16T19:04:55.916Z,38.16
2022-08-16T19:07:19.366Z,38.63
2022-08-16T19:09:46.551Z,38.57
2022-08-16T19:12:15.976Z,39.01
2022-08-16T19:14:44.245Z,39.18
2022-08-16T19:17:12.007Z,38.77
2022-08-16T19:19:38.572Z,39.28
2022-08-16T19:22:06.308Z,39.19
2022-08-16T19:24:33.061Z,39.25
2022-08-16T19:26:59.657Z,38.79
2022-08-16T19:29:28.625Z,38.95
2022-08-16T19:31:55.358Z,39.51
2022-08-16T19:34:22.014Z,39.79
2022-08-16T19:36:48.782Z,39.81
2022-08-16T19:39:16.255Z,39.84
2022-08-16T19:41:45.723Z,39.81
2022-08-16T19:44:12.792Z,40.06
2022-08-16T19:46:43.549Z,39.95
2022-08-16T19:49:10.245Z,40.54
2022-08-16T19:51:42.614Z,40.36
2022-08-16T19:54:09.133Z,40.56
2022-08-16T19:56:35.687Z,40.89
2022-08-16T19:59:18.912Z,40.51
2022-08-16T20:01:46.457Z,41.03
2022-08-16T20:04:13.575Z,41.06
2022-08-16T20:06:42.318Z,41.51
2022-08-16T20:09:10.386Z,42.19
2022-08-16T20:11:39.193Z,42.07
2022-08-16T20:14:05.740Z,42.84
2022-08-16T20:16:32.471Z,41.92
2022-08-16T20:18:59.073Z,41.65
2022-08-16T20:21:25.983Z,41.76
2022-08-16T20:23:58.318Z,42.31
2022-08-16T20:26:36.925Z,42.04
2022-08-16T20:29:06.704Z,41.53
2022-08-16T20:31:33.349Z,41.64
2022-08-16T20:33:59.993Z,42.39
2022-08-16T20:36:26.566Z,41.82
2022-08-16T20:38:54.034Z,41.90
2022-08-16T20:41:20.540Z,42.02
2022-08-16T20:43:47.691Z,42.34
2022-08-16T20:46:14.710Z,41.98
2022-08-16T20:48:41.833Z,42.19
2022-08-16T20:51:10.772Z,42.52
2022-08-16T20:53:39.360Z,42.24
2022-08-16T20:56:06.970Z,42.69
2022-08-16T20:58:33.778Z,41.78
2022-08-16T21:01:01.093Z,41.92
2022-08-16T21:03:27.910Z,41.70
2022-08-16T21:05:57.629Z,42.00
2022-08-16T21:08:52.714Z,42.15
2022-08-16T21:11:11.735Z,42.18
2022-08-16T21:13:42.594Z,42.47
2022-08-16T21:16:09.981Z,42.22
2022-08-16T21:18:36.535Z,42.23
2022-08-16T21:21:03.316Z,42.49
2022-08-16T21:23:30.958Z,42.42
2022-08-16T21:25:57.999Z,42.34
2022-08-16T21:28:40.527Z,41.81
2022-08-16T21:31:11.555Z,42.59
2022-08-16T21:33:38.111Z,42.22
2022-08-16T21:36:05.376Z,42.14
2022-08-16T21:38:32.344Z,42.17
2022-08-16T21:41:00.259Z,42.46
2022-08-16T21:43:32.271Z,42.92
2022-08-16T21:46:03.373Z,42.81
2022-08-16T21:48:33.570Z,42.91
2022-08-16T21:51:10.619Z,43.23
2022-08-16T21:53:37.727Z,42.79
2022-08-16T21:56:06.286Z,43.16
2022-08-16T21:58:33.656Z,43.19
2022-08-16T22:01:01.470Z,43.02
2022-08-16T22:03:28.453Z,42.79
2022-08-16T22:06:11.516Z,43.06
2022-08-16T22:08:48.055Z,43.23
2022-08-16T22:11:17.325Z,43.17
2022-08-16T22:13:49.243Z,43.45
2022-08-16T22:16:26.127Z,43.26
2022-08-16T22:18:53.053Z,43.07
2022-08-16T22:21:20.470Z,43.31
2022-08-16T22:23:57.846Z,43.29
2022-08-16T22:26:31.878Z,43.68
2022-08-16T22:29:06.177Z,43.54
2022-08-16T22:31:33.978Z,43.75
2022-08-16T22:34:02.044Z,43.79
2022-08-16T22:36:29.806Z,43.67
2022-08-16T22:38:58.699Z,43.82
2022-08-16T22:41:31.959Z,43.72
2022-08-16T22:44:00.305Z,44.29
2022-08-16T22:46:26.877Z,43.86
2022-08-16T22:48:53.572Z,44.23
2022-08-16T22:51:22.903Z,44.13
2022-08-16T22:53:49.802Z,44.36
2022-08-16T22:56:17.833Z,44.09
2022-08-16T22:58:45.708Z,44.07
2022-08-16T23:01:13.578Z,44.76
2022-08-16T23:03:41.463Z,44.77
2022-08-16T23:06:10.359Z,45.03
2022-08-16T23:08:40.652Z,45.16
2022-08-16T23:11:10.606Z,44.90
2022-08-16T23:13:37.738Z,45.14
2022-08-16T23:16:17.495Z,45.46
2022-08-16T23:18:44.449Z,45.66
2022-08-16T23:21:11.897Z,45.51
2022-08-16T23:23:39.253Z,45.77
2022-08-16T23:26:47.203Z,45.81
2022-08-16T23:28:54.787Z,46.28
2022-08-16T23:31:21.343Z,46.36
2022-08-16T23:33:47.879Z,46.39
2022-08-16T23:36:14.640Z,46.35
2022-08-16T23:38:41.973Z,46.95
2022-08-16T23:41:11.763Z,47.17
2022-08-16T23:43:42.130Z,47.56
2022-08-16T23:46:19.534Z,47.53
2022-08-16T23:49:59.360Z,47.48
2022-08-16T23:51:32.988Z,47.81
2022-08-16T23:54:00.664Z,48.06
2022-08-16T23:56:27.208Z,48.15
2022-08-16T23:59:02.674Z,48.53
